A06 weather

Kulin Airport
Western Australia, Australia

Public forecast

Using degrees Celsius for public forecast. Weather courtesy of forecast.io.

METAR (pilot weather report)

Closest report is Perth International Airport, 120.1 nm (222.4 km) WNW. Retrieved 2019/04/21 09:30 UTC (22 minutes ago):

YPPH 210930Z 20011KT CAVOK 19/08 Q1024 NOSIG

TAF (pilot weather forecast)

Closest forecast is Perth International Airport, 120.1 nm (222.4 km) WNW. Retrieved 2019/04/21 06:00 UTC (4 hours ago):

TAF YPPH 210512Z 2106/2212 23006KT CAVOK FM211600 06006KT CAVOK FM220400 35007KT CAVOK FM220800 24010KT CAVOK